createdAt,value
2023-03-26T00:01:37.641Z,2.97
2023-03-26T00:04:07.607Z,1.83
2023-03-26T00:06:39.933Z,2.50
2023-03-26T00:09:13.572Z,5.22
2023-03-26T00:11:40.773Z,2.58
2023-03-26T00:14:09.612Z,1.65
2023-03-26T00:16:36.645Z,3.03
2023-03-26T00:19:04.295Z,3.95
2023-03-26T00:21:31.888Z,2.70
2023-03-26T00:24:07.371Z,2.40
2023-03-26T00:26:38.125Z,2.30
2023-03-26T00:29:08.370Z,2.28
2023-03-26T00:31:37.977Z,2.00
2023-03-26T00:34:06.863Z,2.15
2023-03-26T00:36:36.069Z,3.65
2023-03-26T00:39:06.364Z,1.23
2023-03-26T00:41:37.281Z,1.75
2023-03-26T00:44:04.852Z,2.72
2023-03-26T00:46:32.401Z,1.30
2023-03-26T00:49:00.682Z,4.32
2023-03-26T00:51:28.850Z,2.08
2023-03-26T00:53:58.013Z,1.65
2023-03-26T00:56:25.711Z,3.47
2023-03-26T00:58:52.980Z,3.85
2023-03-26T01:01:27.937Z,4.00
2023-03-26T01:04:31.876Z,3.03
2023-03-26T01:07:13.792Z,3.75
2023-03-26T01:09:50.295Z,1.77
2023-03-26T01:12:24.128Z,2.17
2023-03-26T01:14:55.016Z,2.78
2023-03-26T01:17:24.345Z,3.03
2023-03-26T01:20:12.920Z,2.40
2023-03-26T01:22:53.306Z,3.40
2023-03-26T01:25:25.472Z,2.15
2023-03-26T01:27:56.629Z,1.83
2023-03-26T01:30:33.738Z,3.78
2023-03-26T01:34:24.842Z,3.65
2023-03-26T01:37:17.703Z,1.77
2023-03-26T01:40:08.887Z,2.08
2023-03-26T01:47:31.539Z,1.17
2023-03-26T01:50:39.228Z,2.42
2023-03-26T02:05:24.265Z,3.00
2023-03-26T02:08:11.987Z,2.05
2023-03-26T02:10:49.662Z,0.95
2023-03-26T02:13:17.186Z,3.40
2023-03-26T02:16:06.945Z,2.80
2023-03-26T02:18:41.922Z,2.72
2023-03-26T02:21:20.262Z,2.58
2023-03-26T02:23:57.879Z,2.50
2023-03-26T02:26:25.629Z,3.67
2023-03-26T02:28:52.871Z,1.95
2023-03-26T02:31:20.110Z,5.45
2023-03-26T02:33:49.609Z,4.90
2023-03-26T02:36:19.627Z,3.42
2023-03-26T02:38:46.976Z,2.40
2023-03-26T02:41:13.952Z,1.88
2023-03-26T02:43:41.075Z,1.30
2023-03-26T02:46:08.073Z,3.70
2023-03-26T02:48:35.430Z,1.65
2023-03-26T02:51:04.498Z,3.10
2023-03-26T02:53:31.718Z,1.77
2023-03-26T02:56:00.386Z,5.18
2023-03-26T02:58:30.153Z,5.20
2023-03-26T03:00:57.293Z,2.42
2023-03-26T03:03:27.397Z,1.60
2023-03-26T03:05:56.246Z,3.80
2023-03-26T03:08:28.194Z,7.43
2023-03-26T03:11:01.850Z,3.47
2023-03-26T03:13:29.618Z,1.63
2023-03-26T03:15:57.074Z,1.67
2023-03-26T03:18:24.586Z,3.38
2023-03-26T03:20:51.929Z,1.88
2023-03-26T03:23:19.128Z,1.77
2023-03-26T03:25:46.082Z,1.45
2023-03-26T03:28:13.968Z,3.70
2023-03-26T03:30:41.890Z,3.35
2023-03-26T03:33:09.156Z,7.05
2023-03-26T03:35:37.808Z,3.20
2023-03-26T03:38:05.002Z,2.38
2023-03-26T03:40:32.182Z,2.83
2023-03-26T03:42:59.415Z,1.08
2023-03-26T03:45:26.466Z,4.65
2023-03-26T03:47:54.078Z,2.30
2023-03-26T03:50:21.127Z,5.78
2023-03-26T03:52:48.285Z,1.88
2023-03-26T03:55:15.306Z,1.67
2023-03-26T03:57:42.485Z,2.53
2023-03-26T04:00:11.794Z,2.45
2023-03-26T04:02:43.023Z,3.20
2023-03-26T04:05:11.712Z,2.90
2023-03-26T04:07:39.572Z,1.20
2023-03-26T04:10:09.686Z,3.60
2023-03-26T04:12:36.993Z,4.03
2023-03-26T04:15:04.777Z,2.22
2023-03-26T04:17:32.010Z,3.85
2023-03-26T04:20:07.054Z,2.15
2023-03-26T04:22:34.458Z,2.05
2023-03-26T04:25:02.721Z,2.20
2023-03-26T04:27:35.399Z,3.85
2023-03-26T04:30:05.568Z,3.92
2023-03-26T04:32:34.357Z,5.43
2023-03-26T04:35:04.198Z,2.85
2023-03-26T04:37:39.858Z,3.22
2023-03-26T04:40:25.019Z,5.22
2023-03-26T04:45:22.898Z,2.30
2023-03-26T04:47:50.887Z,3.88
2023-03-26T04:50:17.944Z,1.90
2023-03-26T04:52:45.687Z,2.67
2023-03-26T04:55:48.909Z,3.40
2023-03-26T04:58:16.868Z,2.80
2023-03-26T05:00:43.842Z,4.47
2023-03-26T05:03:11.860Z,4.47
2023-03-26T05:05:40.025Z,1.73
2023-03-26T05:08:07.346Z,5.28
2023-03-26T05:10:34.421Z,3.78
2023-03-26T05:13:01.578Z,3.22
2023-03-26T05:15:28.448Z,4.88
2023-03-26T05:17:56.130Z,2.55
2023-03-26T05:20:28.260Z,3.35
2023-03-26T05:22:56.385Z,2.70
2023-03-26T05:25:23.517Z,2.70
2023-03-26T05:27:50.923Z,4.35
2023-03-26T05:30:20.810Z,2.58
2023-03-26T05:32:49.595Z,3.65
2023-03-26T05:35:18.058Z,3.35
2023-03-26T05:37:47.069Z,6.13
2023-03-26T05:40:15.454Z,2.83
2023-03-26T05:42:43.599Z,4.22
2023-03-26T05:45:13.582Z,3.95
2023-03-26T05:47:41.259Z,2.95
2023-03-26T05:50:10.344Z,4.05
2023-03-26T05:52:37.938Z,2.90
2023-03-26T05:55:05.552Z,4.13
2023-03-26T05:57:33.245Z,4.05
2023-03-26T06:00:00.387Z,2.70
2023-03-26T06:02:29.469Z,2.72
2023-03-26T06:04:56.930Z,3.00
2023-03-26T06:07:24.174Z,4.70
2023-03-26T06:09:51.105Z,4.63
2023-03-26T06:12:18.321Z,3.20
2023-03-26T06:14:46.150Z,2.58
2023-03-26T06:17:13.846Z,5.80
2023-03-26T06:19:40.892Z,4.03
2023-03-26T06:22:08.104Z,2.45
2023-03-26T06:24:35.603Z,4.57
2023-03-26T06:27:02.996Z,3.40
2023-03-26T06:29:29.942Z,2.15
2023-03-26T06:32:03.451Z,1.95
2023-03-26T06:34:36.313Z,2.25
2023-03-26T06:37:06.312Z,2.20
2023-03-26T06:39:33.363Z,5.68
2023-03-26T06:42:00.749Z,4.30
2023-03-26T06:44:28.127Z,3.25
2023-03-26T06:46:55.546Z,4.85
2023-03-26T06:49:22.458Z,3.28
2023-03-26T06:51:49.851Z,4.22
2023-03-26T06:54:17.950Z,2.67
2023-03-26T06:56:45.282Z,2.67
2023-03-26T06:59:12.210Z,3.40
2023-03-26T07:01:39.464Z,2.95
2023-03-26T07:04:06.543Z,6.95
2023-03-26T07:06:33.767Z,5.85
2023-03-26T07:09:00.784Z,6.63
2023-03-26T07:11:28.905Z,4.63
2023-03-26T07:13:56.624Z,4.72
2023-03-26T07:16:23.945Z,1.85
2023-03-26T07:18:51.402Z,4.50
2023-03-26T07:21:19.895Z,7.13
2023-03-26T07:23:48.230Z,3.78
2023-03-26T07:26:49.125Z,3.83
2023-03-26T07:29:27.946Z,5.72
2023-03-26T07:32:18.583Z,3.08
2023-03-26T07:34:56.136Z,2.67
2023-03-26T07:37:28.938Z,8.45
2023-03-26T07:40:08.809Z,7.68
2023-03-26T07:42:53.953Z,5.32
2023-03-26T07:45:42.681Z,4.65
2023-03-26T07:48:25.419Z,4.28
2023-03-26T07:50:54.635Z,3.42
2023-03-26T07:53:22.748Z,3.10
2023-03-26T07:55:57.613Z,4.00
2023-03-26T07:58:36.464Z,5.40
2023-03-26T08:01:37.774Z,2.72
2023-03-26T08:04:33.251Z,4.22
2023-03-26T08:10:03.724Z,5.05
2023-03-26T08:15:39.859Z,3.17
2023-03-26T08:18:39.206Z,3.72
2023-03-26T08:21:17.217Z,4.32
2023-03-26T08:24:11.013Z,5.97
2023-03-26T08:27:18.782Z,6.25
2023-03-26T08:30:21.632Z,5.65
2023-03-26T08:33:11.528Z,2.45
2023-03-26T08:35:42.471Z,7.57
2023-03-26T08:38:16.433Z,7.13
2023-03-26T08:41:35.398Z,8.30
2023-03-26T08:44:47.693Z,7.53
2023-03-26T08:47:39.546Z,4.13
2023-03-26T08:50:31.139Z,4.43
2023-03-26T08:53:15.465Z,3.72
2023-03-26T08:56:00.281Z,9.70
2023-03-26T08:58:48.582Z,2.90
2023-03-26T09:01:55.066Z,4.80
2023-03-26T09:04:48.727Z,3.38
2023-03-26T09:08:10.604Z,4.88
2023-03-26T09:11:02.839Z,4.80
2023-03-26T09:13:44.745Z,3.92
2023-03-26T09:16:38.791Z,1.77
2023-03-26T09:19:40.500Z,3.63
2023-03-26T09:22:41.214Z,4.47
2023-03-26T09:25:56.465Z,4.25
2023-03-26T09:29:08.594Z,4.30
2023-03-26T09:31:58.104Z,5.13
2023-03-26T09:35:03.506Z,4.22
2023-03-26T09:37:59.309Z,7.40
2023-03-26T09:40:47.928Z,3.55
2023-03-26T09:43:52.168Z,4.60
2023-03-26T09:46:46.909Z,2.75
2023-03-26T09:49:42.123Z,3.67
2023-03-26T09:52:18.424Z,3.45
2023-03-26T09:55:49.916Z,3.78
2023-03-26T09:59:11.569Z,5.82
2023-03-26T10:02:18.882Z,3.72
2023-03-26T10:05:31.387Z,4.93
2023-03-26T10:08:33.334Z,4.00
2023-03-26T10:11:16.299Z,4.38
2023-03-26T10:14:18.872Z,3.78
2023-03-26T10:17:07.286Z,2.75
2023-03-26T10:20:04.768Z,4.13
2023-03-26T10:22:45.955Z,5.63
2023-03-26T10:25:54.426Z,6.15
2023-03-26T10:28:41.302Z,4.28
2023-03-26T10:31:35.752Z,5.13
2023-03-26T10:34:30.365Z,5.60
2023-03-26T10:37:12.344Z,6.25
2023-03-26T10:40:22.502Z,2.78
2023-03-26T10:43:25.725Z,3.38
2023-03-26T10:46:29.276Z,3.40
2023-03-26T10:49:16.579Z,3.53
2023-03-26T10:51:59.713Z,3.78
2023-03-26T10:54:55.784Z,3.90
2023-03-26T10:57:39.508Z,7.20
2023-03-26T11:00:26.195Z,4.63
2023-03-26T11:03:43.825Z,3.85
2023-03-26T11:06:50.421Z,4.90
2023-03-26T11:09:42.081Z,4.90
2023-03-26T11:12:30.362Z,4.35
2023-03-26T11:15:33.073Z,4.78
2023-03-26T11:18:20.313Z,1.90
2023-03-26T11:21:20.685Z,3.75
2023-03-26T11:24:44.974Z,4.57
2023-03-26T11:27:50.721Z,3.92
2023-03-26T11:30:42.530Z,3.22
2023-03-26T11:33:37.617Z,2.50
2023-03-26T11:36:19.525Z,2.75
2023-03-26T11:38:50.740Z,4.55
2023-03-26T11:41:26.241Z,3.90
2023-03-26T11:44:07.226Z,6.28
2023-03-26T11:46:42.621Z,4.07
2023-03-26T11:49:14.708Z,8.52
2023-03-26T11:51:47.405Z,4.28
2023-03-26T11:54:16.454Z,5.72
2023-03-26T11:57:26.753Z,7.72
2023-03-26T12:00:18.211Z,4.07
2023-03-26T12:02:47.707Z,4.60
2023-03-26T12:05:26.489Z,2.75
2023-03-26T12:07:59.315Z,64.03
2023-03-26T12:10:42.942Z,7.68
2023-03-26T12:13:28.236Z,6.25
2023-03-26T12:19:05.500Z,4.97
2023-03-26T12:21:51.595Z,5.25
2023-03-26T12:24:44.945Z,5.00
2023-03-26T12:27:28.355Z,4.35
2023-03-26T12:30:23.911Z,1.88
2023-03-26T12:35:30.241Z,3.53
2023-03-26T12:38:24.579Z,2.05
2023-03-26T12:44:42.331Z,5.45
2023-03-26T12:44:59.352Z,5.65
2023-03-26T12:48:01.815Z,2.78
2023-03-26T12:50:34.027Z,6.93
2023-03-26T12:53:38.537Z,8.10
2023-03-26T12:56:38.654Z,6.55
2023-03-26T12:59:44.616Z,6.22
2023-03-26T13:02:59.100Z,3.00
2023-03-26T13:06:23.735Z,2.38
2023-03-26T13:09:27.778Z,5.60
2023-03-26T13:12:41.800Z,2.63
2023-03-26T13:15:31.264Z,3.83
2023-03-26T13:18:27.388Z,4.82
2023-03-26T13:21:09.665Z,8.82
2023-03-26T13:24:00.879Z,2.63
2023-03-26T13:27:27.049Z,4.63
2023-03-26T13:30:22.300Z,3.28
2023-03-26T13:33:35.922Z,4.03
2023-03-26T13:36:23.380Z,4.70
2023-03-26T13:39:26.245Z,15.88
2023-03-26T13:42:15.944Z,4.97
2023-03-26T13:45:07.439Z,6.72
2023-03-26T13:47:41.117Z,9.07
2023-03-26T13:50:28.690Z,2.53
2023-03-26T13:52:58.980Z,4.13
2023-03-26T13:55:38.556Z,4.85
2023-03-26T13:58:22.047Z,5.70
2023-03-26T14:00:58.501Z,4.60
2023-03-26T14:04:03.920Z,3.17
2023-03-26T14:06:54.225Z,4.78
2023-03-26T14:10:01.948Z,4.20
2023-03-26T14:12:52.473Z,3.38
2023-03-26T14:15:28.535Z,5.25
2023-03-26T14:18:25.917Z,5.90
2023-03-26T14:21:54.645Z,6.00
2023-03-26T14:24:49.686Z,3.92
2023-03-26T14:27:44.411Z,8.35
2023-03-26T14:30:17.910Z,8.68
2023-03-26T14:33:27.848Z,3.20
2023-03-26T14:36:05.671Z,7.65
2023-03-26T14:39:13.867Z,7.07
2023-03-26T14:42:32.408Z,6.88
2023-03-26T14:45:49.552Z,5.90
2023-03-26T14:48:55.921Z,6.47
2023-03-26T14:51:53.495Z,8.30
2023-03-26T14:54:27.300Z,7.47
2023-03-26T14:57:18.904Z,4.97
2023-03-26T14:59:58.391Z,7.70
2023-03-26T15:03:24.676Z,12.23
2023-03-26T15:06:15.430Z,7.65
2023-03-26T15:09:22.867Z,6.47
2023-03-26T15:12:22.093Z,5.00
2023-03-26T15:15:39.044Z,4.88
2023-03-26T15:18:49.615Z,5.20
2023-03-26T15:22:26.633Z,4.88
2023-03-26T15:25:16.821Z,5.75
2023-03-26T15:28:20.568Z,5.78
2023-03-26T15:31:18.998Z,4.28
2023-03-26T15:34:20.172Z,2.00
2023-03-26T15:37:30.669Z,4.85
2023-03-26T15:40:16.547Z,4.28
2023-03-26T15:43:12.207Z,3.08
2023-03-26T15:46:25.284Z,4.28
2023-03-26T15:49:19.731Z,6.88
2023-03-26T15:52:13.069Z,4.43
2023-03-26T15:55:18.140Z,5.32
2023-03-26T15:58:28.129Z,7.65
2023-03-26T16:01:21.183Z,4.63
2023-03-26T16:04:10.701Z,3.13
2023-03-26T16:07:03.778Z,5.03
2023-03-26T16:09:48.053Z,2.92
2023-03-26T16:12:57.558Z,2.40
2023-03-26T16:15:29.978Z,6.03
2023-03-26T16:18:10.392Z,3.50
2023-03-26T16:20:50.697Z,1.83
2023-03-26T16:23:47.581Z,6.65
2023-03-26T16:26:44.108Z,5.47
2023-03-26T16:29:14.403Z,2.17
2023-03-26T16:32:35.493Z,4.43
2023-03-26T16:35:55.280Z,4.18
2023-03-26T16:38:25.033Z,5.70
2023-03-26T16:41:03.629Z,4.00
2023-03-26T16:43:46.840Z,4.80
2023-03-26T16:46:53.354Z,2.63
2023-03-26T16:50:08.967Z,2.90
2023-03-26T16:53:02.762Z,5.78
2023-03-26T16:55:43.881Z,4.28
2023-03-26T16:58:10.934Z,4.18
2023-03-26T17:00:59.890Z,2.40
2023-03-26T17:04:02.724Z,3.25
2023-03-26T17:06:56.789Z,6.22
2023-03-26T17:10:09.771Z,5.25
2023-03-26T17:12:45.313Z,4.00
2023-03-26T17:16:04.245Z,6.63
2023-03-26T17:19:24.598Z,8.05
2023-03-26T17:22:37.517Z,8.50
2023-03-26T17:25:32.013Z,4.95
2023-03-26T17:28:24.208Z,4.07
2023-03-26T17:31:15.882Z,6.90
2023-03-26T17:33:43.652Z,7.80
2023-03-26T17:36:16.517Z,4.78
2023-03-26T17:38:47.152Z,5.25
2023-03-26T17:42:01.326Z,7.63
2023-03-26T17:44:57.758Z,7.00
2023-03-26T17:47:38.315Z,5.32
2023-03-26T17:50:17.960Z,18.20
2023-03-26T17:53:01.708Z,7.68
2023-03-26T17:55:40.651Z,7.38
2023-03-26T17:58:29.755Z,9.40
2023-03-26T18:01:06.411Z,6.25
2023-03-26T18:03:44.887Z,7.38
2023-03-26T18:06:57.058Z,8.07
2023-03-26T18:09:57.108Z,7.72
2023-03-26T18:12:33.533Z,5.85
2023-03-26T18:15:28.985Z,6.85
2023-03-26T18:20:49.356Z,8.68
2023-03-26T18:23:39.079Z,13.80
2023-03-26T18:26:32.469Z,5.90
2023-03-26T18:29:29.509Z,9.00
2023-03-26T18:32:09.368Z,6.07
2023-03-26T18:34:52.688Z,7.43
2023-03-26T18:37:27.970Z,6.15
2023-03-26T18:40:16.261Z,7.13
2023-03-26T18:42:48.664Z,8.52
2023-03-26T18:45:38.692Z,5.22
2023-03-26T18:48:17.795Z,16.50
2023-03-26T18:50:47.538Z,11.07
2023-03-26T18:53:20.810Z,8.50
2023-03-26T18:55:50.692Z,9.88
2023-03-26T18:58:34.409Z,7.50
2023-03-26T19:01:20.125Z,10.23
2023-03-26T19:03:51.774Z,9.45
2023-03-26T19:06:21.296Z,7.35
2023-03-26T19:08:49.601Z,12.45
2023-03-26T19:11:18.074Z,7.18
2023-03-26T19:14:00.002Z,13.10
2023-03-26T19:16:34.027Z,26.27
2023-03-26T19:19:06.928Z,11.20
2023-03-26T19:21:36.591Z,24.02
2023-03-26T19:24:05.574Z,8.65
2023-03-26T19:26:33.420Z,7.72
2023-03-26T19:29:00.992Z,10.88
2023-03-26T19:31:34.495Z,12.30
2023-03-26T19:34:15.687Z,12.57
2023-03-26T19:37:21.994Z,12.63
2023-03-26T19:39:55.442Z,29.38
2023-03-26T19:42:43.725Z,32.30
2023-03-26T19:45:23.596Z,30.45
2023-03-26T19:48:03.661Z,22.48
2023-03-26T19:50:42.255Z,12.50
2023-03-26T19:53:18.968Z,33.80
2023-03-26T19:56:14.639Z,9.43
2023-03-26T20:01:21.093Z,16.02
2023-03-26T20:03:58.043Z,16.38
2023-03-26T20:06:42.514Z,17.75
2023-03-26T20:09:13.636Z,12.68
2023-03-26T20:11:41.231Z,23.00
2023-03-26T20:14:18.236Z,11.82
2023-03-26T20:16:46.001Z,8.20
2023-03-26T20:19:15.256Z,14.25
2023-03-26T20:21:44.361Z,9.55
2023-03-26T20:24:17.914Z,10.57
2023-03-26T20:26:46.410Z,13.35
2023-03-26T20:29:15.048Z,8.93
2023-03-26T20:31:43.266Z,12.18
2023-03-26T20:34:26.201Z,13.52
2023-03-26T20:36:57.155Z,15.18
2023-03-26T20:39:28.705Z,13.55
2023-03-26T20:41:56.532Z,17.27
2023-03-26T20:44:26.794Z,16.30
2023-03-26T20:46:56.507Z,21.95
2023-03-26T20:49:25.186Z,15.68
2023-03-26T20:51:52.070Z,16.00
2023-03-26T20:54:23.555Z,13.02
2023-03-26T20:56:52.517Z,12.02
2023-03-26T20:59:26.578Z,13.18
2023-03-26T21:01:56.865Z,11.60
2023-03-26T21:04:24.989Z,17.27
2023-03-26T21:06:57.588Z,17.20
2023-03-26T21:09:34.193Z,14.02
2023-03-26T21:12:15.315Z,18.50
2023-03-26T21:14:44.213Z,15.23
2023-03-26T21:17:19.128Z,14.30
2023-03-26T21:22:22.673Z,16.13
2023-03-26T21:25:17.368Z,17.02
2023-03-26T21:27:54.849Z,18.75
2023-03-26T21:30:22.396Z,16.77
2023-03-26T21:32:50.372Z,15.80
2023-03-26T21:35:19.091Z,14.48
2023-03-26T21:37:50.805Z,13.38
2023-03-26T21:40:19.488Z,13.68
2023-03-26T21:42:50.206Z,11.75
2023-03-26T21:45:19.082Z,13.52
2023-03-26T21:47:46.654Z,10.45
2023-03-26T21:50:22.227Z,13.75
2023-03-26T21:52:51.795Z,15.10
2023-03-26T21:55:23.632Z,17.08
2023-03-26T21:58:13.412Z,12.82
2023-03-26T22:01:02.734Z,13.10
2023-03-26T22:03:55.475Z,19.02
2023-03-26T22:06:46.032Z,14.15
2023-03-26T22:09:15.084Z,14.13
2023-03-26T22:11:44.225Z,19.50
2023-03-26T22:14:13.349Z,26.55
2023-03-26T22:16:41.711Z,27.27
2023-03-26T22:19:09.015Z,25.80
2023-03-26T22:21:36.363Z,32.67
2023-03-26T22:24:07.107Z,37.88
2023-03-26T22:26:36.426Z,30.33
2023-03-26T22:29:05.190Z,32.03
2023-03-26T22:31:32.476Z,28.80
2023-03-26T22:33:59.452Z,28.55
2023-03-26T22:36:27.467Z,28.38
2023-03-26T22:38:55.344Z,29.77
2023-03-26T22:41:23.459Z,30.38
2023-03-26T22:43:53.628Z,29.20
2023-03-26T22:46:22.780Z,29.20
2023-03-26T22:48:50.862Z,30.48
2023-03-26T22:51:18.621Z,30.52
2023-03-26T22:53:45.979Z,25.08
2023-03-26T22:56:14.354Z,26.20
2023-03-26T22:58:42.305Z,25.90
2023-03-26T23:01:18.048Z,22.15
2023-03-26T23:03:45.547Z,25.33
2023-03-26T23:06:13.525Z,27.42
2023-03-26T23:08:41.216Z,19.60
2023-03-26T23:11:21.956Z,20.35
2023-03-26T23:13:49.752Z,23.35
2023-03-26T23:16:18.102Z,19.88
2023-03-26T23:18:45.805Z,22.55
2023-03-26T23:21:20.853Z,26.58
2023-03-26T23:23:52.189Z,26.98
2023-03-26T23:26:19.543Z,25.00
2023-03-26T23:28:46.999Z,26.27
2023-03-26T23:31:14.525Z,22.42
2023-03-26T23:33:45.896Z,33.10
2023-03-26T23:36:18.387Z,28.58
2023-03-26T23:38:48.249Z,27.27
2023-03-26T23:41:21.505Z,27.27
2023-03-26T23:43:55.859Z,29.50
2023-03-26T23:46:30.267Z,26.25
2023-03-26T23:49:00.118Z,25.83
2023-03-26T23:51:30.188Z,24.48
2023-03-26T23:53:57.822Z,22.90
2023-03-26T23:56:27.097Z,22.23
2023-03-26T23:58:55.301Z,20.65
